地図

経路データ

SID SEASON NUMBER BASIN SUBBASIN NAME ISO_TIME NATURE LAT LON WMO_WIND WMO_PRES WMO_AGENCY TRACK_TYPE DIST2LAND LANDFALL IFLAG USA_AGENCY USA_ATCF_ID USA_LAT USA_LON USA_RECORD USA_STATUS USA_WIND USA_PRES USA_SSHS USA_R34_NE USA_R34_SE USA_R34_SW USA_R34_NW USA_R50_NE USA_R50_SE USA_R50_SW USA_R50_NW USA_R64_NE USA_R64_SE USA_R64_SW USA_R64_NW USA_POCI USA_ROCI USA_RMW USA_EYE TOKYO_LAT TOKYO_LON TOKYO_GRADE TOKYO_WIND TOKYO_PRES TOKYO_R50_DIR TOKYO_R50_LONG TOKYO_R50_SHORT TOKYO_R30_DIR TOKYO_R30_LONG TOKYO_R30_SHORT TOKYO_LAND CMA_LAT CMA_LON CMA_CAT CMA_WIND CMA_PRES HKO_LAT HKO_LON HKO_CAT HKO_WIND HKO_PRES NEWDELHI_LAT NEWDELHI_LON NEWDELHI_GRADE NEWDELHI_WIND NEWDELHI_PRES NEWDELHI_CI NEWDELHI_DP NEWDELHI_POCI REUNION_LAT REUNION_LON REUNION_TYPE REUNION_WIND REUNION_PRES REUNION_TNUM REUNION_CI REUNION_RMW REUNION_R34_NE REUNION_R34_SE REUNION_R34_SW REUNION_R34_NW REUNION_R50_NE REUNION_R50_SE REUNION_R50_SW REUNION_R50_NW REUNION_R64_NE REUNION_R64_SE REUNION_R64_SW REUNION_R64_NW BOM_LAT BOM_LON BOM_TYPE BOM_WIND BOM_PRES BOM_TNUM BOM_CI BOM_RMW BOM_R34_NE BOM_R34_SE BOM_R34_SW BOM_R34_NW BOM_R50_NE BOM_R50_SE BOM_R50_SW BOM_R50_NW BOM_R64_NE BOM_R64_SE BOM_R64_SW BOM_R64_NW BOM_ROCI BOM_POCI BOM_EYE BOM_POS_METHOD BOM_PRES_METHOD NADI_LAT NADI_LON NADI_CAT NADI_WIND NADI_PRES WELLINGTON_LAT WELLINGTON_LON WELLINGTON_WIND WELLINGTON_PRES DS824_LAT DS824_LON DS824_STAGE DS824_WIND DS824_PRES TD9636_LAT TD9636_LON TD9636_STAGE TD9636_WIND TD9636_PRES TD9635_LAT TD9635_LON TD9635_WIND TD9635_PRES TD9635_ROCI NEUMANN_LAT NEUMANN_LON NEUMANN_CLASS NEUMANN_WIND NEUMANN_PRES MLC_LAT MLC_LON MLC_CLASS MLC_WIND MLC_PRES USA_GUST BOM_GUST BOM_GUST_PER REUNION_GUST REUNION_GUST_PER USA_SEAHGT USA_SEARAD_NE USA_SEARAD_SE USA_SEARAD_SW USA_SEARAD_NW STORM_SPEED STORM_DIR
1971166N12270 1971 57 EP MM BRIDGET 1971-06-14 12:00:00 TS 11.6000 -89.6000 25 hurdat_epa main 199 184 O________OO___ hurdat_epa EP021971 11.6000 -89.6000 TD 25 -1 11.6000 -89.6000 TC 25 11.6000 -89.6000 1 4 31
1971166N12270 1971 57 EP MM BRIDGET 1971-06-14 15:00:00 TS 11.7549 -89.5043 main 174 174 P________PP___ EP021971 11.7617 -89.3627 TD 27 -1 11.7617 -89.3627 TC 27 11.7277 -90.0704 1 3 327
1971166N12270 1971 57 EP MM BRIDGET 1971-06-14 18:00:00 TS 11.8908 -89.7945 30 hurdat_epa main 179 173 O________OP___ hurdat_epa EP021971 11.9000 -89.6000 TD 30 -1 11.9000 -89.6000 TC 30 11.8541 -90.5727 1 12 282
1971166N12270 1971 57 EP MM BRIDGET 1971-06-14 21:00:00 TS 11.9968 -90.6977 main 194 194 P________PP___ EP021971 12.0014 -90.5875 TD 32 -1 12.0014 -90.5875 TC 32 11.9785 -91.1386 1 20 276
1971166N12270 1971 57 EP MM BRIDGET 1971-06-15 00:00:00 TS 12.1000 -91.8000 35 hurdat_epa main 208 208 O________OO___ hurdat_epa EP021971 12.1000 -91.8000 TS 35 0 12.1000 -91.8000 TC 35 12.1000 -91.8000 2 19 277
1971166N12270 1971 57 EP MM BRIDGET 1971-06-15 03:00:00 TS 12.2374 -92.6016 main 236 234 P________PP___ EP021971 12.2419 -92.6100 TS 37 0 12.2419 -92.6100 TC 37 12.2198 -92.5679 2 15 281
1971166N12270 1971 57 EP MM BRIDGET 1971-06-15 06:00:00 TS 12.3899 -93.3139 40 hurdat_epa main 258 258 O________OP___ hurdat_epa EP021971 12.4000 -93.3000 TS 40 0 12.4000 -93.3000 TC 40 12.3495 -93.3697 2 15 281
1971166N12270 1971 57 EP MM BRIDGET 1971-06-15 09:00:00 TS 12.5230 -94.0883 main 303 303 P________PP___ EP021971 12.5277 -94.0825 TS 40 0 12.5277 -94.0825 TC 40 12.5042 -94.1116 2 14 283
1971166N12270 1971 57 EP MM BRIDGET 1971-06-15 12:00:00 TS 12.7000 -94.7000 40 hurdat_epa main 334 328 O________OO___ hurdat_epa EP021971 12.7000 -94.7000 TS 40 0 12.7000 -94.7000 TC 40 12.7000 -94.7000 2 10 297
1971166N12270 1971 57 EP MM BRIDGET 1971-06-15 15:00:00 TS 12.9728 -94.9856 main 328 293 P________PP___ EP021971 12.9772 -94.9901 TS 42 0 12.9772 -94.9901 TC 42 12.9553 -94.9675 2 7 327
1971166N12270 1971 57 EP MM BRIDGET 1971-06-15 18:00:00 TS 13.2906 -95.0968 45 hurdat_epa main 293 258 O________OP___ hurdat_epa EP021971 13.3000 -95.1000 TS 45 0 13.3000 -95.1000 TC 45 13.2531 -95.0839 2 6 345
1971166N12270 1971 57 EP MM BRIDGET 1971-06-15 21:00:00 TS 13.5947 -95.1619 main 258 223 P________PP___ EP021971 13.5998 -95.1628 TS 47 0 13.5998 -95.1628 TC 47 13.5743 -95.1583 2 6 342
1971166N12270 1971 57 EP MM BRIDGET 1971-06-16 00:00:00 TS 13.9000 -95.3000 50 hurdat_epa main 223 176 O________OO___ hurdat_epa EP021971 13.9000 -95.3000 TS 50 0 13.9000 -95.3000 TC 50 13.9000 -95.3000 2 8 320
1971166N12270 1971 57 EP MM BRIDGET 1971-06-16 03:00:00 TS 14.1985 -95.6867 main 176 134 P________PP___ EP021971 14.2001 -95.6974 TS 50 0 14.2001 -95.6974 TC 50 14.1919 -95.6437 2 10 305
1971166N12270 1971 57 EP MM BRIDGET 1971-06-16 06:00:00 TS 14.4970 -96.1746 50 hurdat_epa main 130 89 O________OP___ hurdat_epa EP021971 14.5000 -96.2000 TS 50 0 14.5000 -96.2000 TC 50 14.4850 -96.0730 2 11 303
1971166N12270 1971 57 EP MM BRIDGET 1971-06-16 09:00:00 TS 14.7910 -96.6214 main 89 70 P________PP___ EP021971 14.7923 -96.6353 TS 62 0 14.7923 -96.6353 TC 62 14.7855 -96.5658 2 11 304
1971166N12270 1971 57 EP MM BRIDGET 1971-06-16 12:00:00 TS 15.1000 -97.1000 75 hurdat_epa main 74 64 O________OO___ hurdat_epa EP021971 15.1000 -97.1000 HU 75 1 15.1000 -97.1000 TC 75 15.1000 -97.1000 3 12 304
1971166N12270 1971 57 EP MM BRIDGET 1971-06-16 15:00:00 TS 15.4458 -97.6242 main 67 39 P________PP___ EP021971 15.4424 -97.6276 HU 80 1 15.4424 -97.6276 TC 80 15.4594 -97.6106 3 13 304
1971166N12270 1971 57 EP MM BRIDGET 1971-06-16 18:00:00 TS 15.8058 -98.1920 85 hurdat_epa main 46 15 O________OP___ hurdat_epa EP021971 15.8000 -98.2000 HU 85 2 15.8000 -98.2000 TC 85 15.8290 -98.1600 3 13 304
1971166N12270 1971 57 EP MM BRIDGET 1971-06-16 21:00:00 TS 16.1746 -98.7669 main 24 22 P________PP___ EP021971 16.1722 -98.7701 HU 80 1 16.1722 -98.7701 TC 80 16.1841 -98.7544 3 14 301
1971166N12270 1971 57 EP MM BRIDGET 1971-06-17 00:00:00 TS 16.5000 -99.4000 75 hurdat_epa main 22 11 O________OO___ hurdat_epa EP021971 16.5000 -99.4000 HU 75 1 16.5000 -99.4000 TC 75 16.5000 -99.4000 4 14 293
1971166N12270 1971 57 EP MM BRIDGET 1971-06-17 03:00:00 TS 16.7153 -100.128 main 24 24 P________PP___ EP021971 16.7225 -100.128 HU 75 1 16.7225 -100.128 TC 75 16.6869 -100.126 4 15 285
1971166N12270 1971 57 EP MM BRIDGET 1971-06-17 06:00:00 TS 16.8882 -100.899 75 hurdat_epa main 35 35 O________OP___ hurdat_epa EP021971 16.9000 -100.900 HU 75 1 16.9000 -100.900 TC 75 16.8409 -100.896 4 15 282
1971166N12270 1971 57 EP MM BRIDGET 1971-06-17 09:00:00 TS 17.0308 -101.672 main 69 64 P________PP___ EP021971 17.0325 -101.673 HU 75 1 17.0325 -101.673 TC 75 17.0244 -101.667 4 15 286
1971166N12270 1971 57 EP MM BRIDGET 1971-06-17 12:00:00 TS 17.3000 -102.400 75 hurdat_epa main 67 24 O________OO___ hurdat_epa EP021971 17.3000 -102.400 HU 75 1 17.3000 -102.400 TC 75 17.3000 -102.400 4 16 304
1971166N12270 1971 57 EP MM BRIDGET 1971-06-17 15:00:00 TS 17.9039 -103.036 main 24 0 P________PP___ EP021971 17.9121 -103.022 HU 60 0 17.9121 -103.022 TC 60 17.8708 -103.092 4 17 318
1971166N12270 1971 57 EP MM BRIDGET 1971-06-17 18:00:00 TS 18.5840 -103.627 45 hurdat_epa main 0 0 O________OP___ hurdat_epa EP021971 18.6000 -103.600 TS 45 0 18.6000 -103.600 TC 45 18.5198 -103.737 4 17 317
1971166N12270 1971 57 EP MM BRIDGET 1971-06-17 21:00:00 TS 19.1579 -104.259 main 0 0 P________PP___ EP021971 19.1701 -104.245 TS 35 0 19.1701 -104.245 TC 35 19.1088 -104.314 4 14 310
1971166N12270 1971 57 EP MM BRIDGET 1971-06-18 00:00:00 TS 19.5000 -104.800 25 hurdat_epa main 0 0 O________OO___ hurdat_epa EP021971 19.5000 -104.800 TD 25 -1 19.5000 -104.800 TC 25 19.5000 -104.800 6 9 290
1971166N12270 1971 57 EP MM BRIDGET 1971-06-18 03:00:00 TS 19.4609 -105.151 main 15 15 P________PP___ EP021971 19.4547 -105.153 TD 25 -1 19.4547 -105.153 TC 25 19.4856 -105.143 6 6 243
1971166N12270 1971 57 EP MM BRIDGET 1971-06-18 06:00:00 TS 19.2141 -105.400 25 hurdat_epa main 47 47 O________OP___ hurdat_epa EP021971 19.2000 -105.400 TD 25 -1 19.2000 -105.400 TC 25 19.2705 -105.398 6 7 221
1971166N12270 1971 57 EP MM BRIDGET 1971-06-18 09:00:00 TS 18.9419 -105.628 main 84 84 P________PP___ EP021971 18.9348 -105.628 TD 25 -1 18.9348 -105.628 TC 25 18.9702 -105.629 6 7 223
1971166N12270 1971 57 EP MM BRIDGET 1971-06-18 12:00:00 TS 18.7000 -105.900 25 hurdat_epa main 122 122 O________OO___ hurdat_epa EP021971 18.7000 -105.900 TD 25 -1 18.7000 -105.900 TC 25 18.7000 -105.900 6 7 243
1971166N12270 1971 57 EP MM BRIDGET 1971-06-18 15:00:00 TS 18.6102 -106.321 main 161 161 P________PP___ EP021971 18.6126 -106.320 TD 25 -1 18.6126 -106.320 TC 25 18.6009 -106.324 6 9 263
1971166N12270 1971 57 EP MM BRIDGET 1971-06-18 18:00:00 TS 18.5907 -106.799 25 hurdat_epa main 199 199 O________OP___ hurdat_epa EP021971 18.6000 -106.800 TD 25 -1 18.6000 -106.800 TC 25 18.5533 -106.792 6 9 268
1971166N12270 1971 57 EP MM BRIDGET 1971-06-18 21:00:00 TS 18.5728 -107.271 main 243 243 P________PP___ EP021971 18.5775 -107.273 TD 25 -1 18.5775 -107.273 TC 25 18.5540 -107.265 6 9 271
1971166N12270 1971 57 EP MM BRIDGET 1971-06-19 00:00:00 TS 18.6000 -107.700 25 hurdat_epa main 278 278 O________OO___ hurdat_epa EP021971 18.6000 -107.700 TD 25 -1 18.6000 -107.700 TC 25 18.6000 -107.700 6 7 278
1971166N12270 1971 57 EP MM BRIDGET 1971-06-19 03:00:00 TS 18.6741 -108.028 main 299 299 P________PP___ EP021971 18.6773 -108.023 TD 25 -1 18.6773 -108.023 TC 25 18.6611 -108.051 6 6 288
1971166N12270 1971 57 EP MM BRIDGET 1971-06-19 06:00:00 TS 18.7934 -108.312 25 hurdat_epa main 322 322 O________OP___ hurdat_epa EP021971 18.8000 -108.300 TD 25 -1 18.8000 -108.300 TC 25 18.7669 -108.360 6 6 294
1971166N12270 1971 57 EP MM BRIDGET 1971-06-19 09:00:00 TS 18.9249 -108.614 main 346 346 P________PP___ EP021971 18.9275 -108.608 TD 25 -1 18.9275 -108.608 TC 25 18.9143 -108.639 6 6 299
1971166N12270 1971 57 EP MM BRIDGET 1971-06-19 12:00:00 TS 19.1000 -108.900 25 hurdat_epa main 365 365 O________OO___ hurdat_epa EP021971 19.1000 -108.900 TD 25 -1 19.1000 -108.900 TC 25 19.1000 -108.900 6 7 308
1971166N12270 1971 57 EP MM BRIDGET 1971-06-19 15:00:00 TS 19.3319 -109.157 main 386 371 P________PP___ EP021971 19.3349 -109.158 TD 25 -1 19.3349 -109.158 TC 25 19.3197 -109.154 6 7 316
1971166N12270 1971 57 EP MM BRIDGET 1971-06-19 18:00:00 TS 19.5931 -109.401 25 hurdat_epa main 371 347 O________OP___ hurdat_epa EP021971 19.6000 -109.400 TD 25 -1 19.6000 -109.400 TC 25 19.5654 -109.404 6 7 318
1971166N12270 1971 57 EP MM BRIDGET 1971-06-19 21:00:00 TS 19.8498 -109.648 main 347 313 P________PP___ EP021971 19.8551 -109.647 TD 25 -1 19.8551 -109.647 TC 25 19.8285 -109.653 6 7 317
1971166N12270 1971 57 EP MM BRIDGET 1971-06-20 00:00:00 TS 20.1000 -109.900 25 hurdat_epa main 313 O________OO___ hurdat_epa EP021971 20.1000 -109.900 TD 25 -1 20.1000 -109.900 TC 25 20.1000 -109.900 6 7 317

IBTrACS Databaseについて

本データベースは、米国NOAAが公開する1842年以降の世界の熱帯低気圧のベストトラックデータアーカイブInternational Best Track Archive for Climate Stewardship (IBTrACS)を、ウェブで閲覧しやすい形式に変換したものです。

最終更新日:2021-10-08